Aviation Digital Data Service (ADDS)

Output produced by METARs form (0258 UTC 21 January 2018)
found at http://www.aviationweather.gov/adds/metars/
 
KDUJ 210253Z AUTO A3005 RMK AO2 SLPNO 53012 PWINO FZRANO $
KDUJ 210153Z AUTO A3003 RMK AO2 SLPNO PWINO FZRANO $
KDUJ 210053Z AUTO 02/M04 A3003 RMK AO2 SLP184 T00171039 PWINO FZRANO $
KDUJ 202353Z AUTO 23004KT 10SM CLR 02/M04 A3002 RMK AO2 SLP182 T00171039 10050 20017 51021
KDUJ 202253Z AUTO 25007KT 10SM CLR 03/M04 A3001 RMK AO2 SLP177 T00281039
KDUJ 202153Z AUTO 25009KT 10SM CLR 04/M04 A2998 RMK AO2 SLP168 T00391039
KDUJ 202053Z AUTO 24013KT 10SM CLR 04/M04 A2995 RMK AO2 SLP157 T00441039 53005
KDUJ 201953Z AUTO 24016G20KT 10SM CLR 04/M04 A2993 RMK AO2 SLP149 T00441039
KDUJ 201853Z AUTO 24010KT 10SM CLR 04/M04 A2992 RMK AO2 SLP146 T00391039
KDUJ 201753Z AUTO 27017G23KT 10SM CLR 04/M04 A2994 RMK AO2 PK WND 24028/1703 SLP152 T00391044 10039 21006 58004
KDUJ 201653Z AUTO 24016G22KT 10SM CLR 03/M04 A2995 RMK AO2 PK WND 25028/1607 SLP158 T00281044
KDUJ 201553Z AUTO 24018G26KT 10SM CLR 02/M05 A2996 RMK AO2 PK WND 25030/1505 SLP159 T00221050
KDUJ 201453Z AUTO 25018G23KT 10SM CLR 01/M05 A2995 RMK AO2 PK WND 25026/1438 SLP157 T00111050 53014
KDUJ 201353Z AUTO 23016KT 10SM CLR 01/M06 A2993 RMK AO2 PK WND 24027/1324 SLP152 T00061061
KDUJ 201253Z AUTO 24016KT 10SM CLR M01/M06 A2992 RMK AO2 SLP148 T10061061
KDUJ 201153Z AUTO 23017G25KT 10SM CLR M01/M07 A2991 RMK AO2 PK WND 25026/1143 SLP145 T10061067 10000 21006 53008
KDUJ 201053Z AUTO 24015G21KT 10SM CLR M01/M07 A2989 RMK AO2 SLP140 T10061072
KDUJ 200953Z AUTO 23014KT 10SM CLR M01/M08 A2989 RMK AO2 SLP137 T10061078
KDUJ 200853Z AUTO 23015KT 10SM CLR M01/M08 A2988 RMK AO2 PK WND 22026/0802 SLP135 T10061083 53003
KDUJ 200753Z AUTO 23016G23KT 10SM CLR M01/M09 A2988 RMK AO2 SLP135 T10061089
KDUJ 200653Z AUTO 23015G25KT 10SM CLR M01/M08 A2987 RMK AO2 SLP131 T10061083
KDUJ 200553Z AUTO 23013G19KT 10SM CLR M01/M09 A2987 RMK AO2 SLP134 T10061089 10000 21011 58012
KDUJ 200453Z AUTO 23014KT 10SM CLR M01/M09 A2989 RMK AO2 SLP141 T10061089 400111083
KDUJ 200353Z AUTO 22012KT 10SM CLR M01/M09 A2990 RMK AO2 SLP145 T10061089